Airfield :
LOGIN :

Register | Disclaimer

   EN    FR    IT 

 










Legend :    VFR   Marginal VFR   IFR   Intensive IFR   Very Intensive IFR
Visi :
Ceiling :
>= 8 km
>= 3000ft
5 to 8 km
1000 to 3000 ft
1500m to 5 km
500 to 1000 ft
800 to 1500m
200 to 500 ft
< 800m
< 200 ft
Symbols :   Thunderstorms  Fog  Heavy snow  Heavy precipitations  Wind > 20 kt
SIGMETs :     Misc.  Thunderstorms  Icing  Turbulence  Mountain Waves  Volcanic Ashes






- Airport Elevation : 25 ft
- IATA code : QCY


EGXC - RAF Coningsby

CURRENT METAR :
  • 280720Z 27014KT 9999 FEW022 SCT250 03/00 Q0989 TEMPO SCT022 RMK BLU TEMPO WHT

EXPIRED METARs :
  • 280650Z 27013KT 9999 FEW022 SCT160 03/01 Q0988 TEMPO SCT018 RMK BLU TEMPO WHT
  • 280550Z 26014KT 9999 FEW030 BKN140 04/01 Q0987 RMK BLU
  • 280450Z 26012KT 9999 FEW025 BKN100 04/02 Q0987 RMK BLU

TAF TAF EGXC
Valid from the 28 at 06:00 until the 29 at 00:00 UTC


280431Z 2806/2824 26014KT 9999 FEW018 SCT030
TEMPO 2806/2817 SCT018
PROB30
TEMPO 2806/2809 -SHRA SCT012 BKN030
BECMG 2807/2810 26015G25KT
BECMG 2816/2818 26012KT



MET'MAP, your aeronautical weather chart ! - Copyright ORBIFLY December 2007 - Disclaimer

ORBIFLY MET'MAP TEAM :

Programming & Development : Alexandra Zaïnal
Concept & original design : Baudouin d'Aumeries
Assistance for programming : Marc-Olivier Méhu
Technical & hardware support : Manuel Goepfert

Contact : metmap@orbifly.com




SOURCES & CREDITS :

   NOAA